createdAt,value
2022-08-17T00:00:34.613Z,11.85
2022-08-17T00:03:06.358Z,10.18
2022-08-17T00:05:39.584Z,10.75
2022-08-17T00:08:07.494Z,7.28
2022-08-17T00:10:35.595Z,11.77
2022-08-17T00:13:08.201Z,14.48
2022-08-17T00:15:36.127Z,11.15
2022-08-17T00:18:04.623Z,9.95
2022-08-17T00:20:53.920Z,12.02
2022-08-17T00:23:22.392Z,9.13
2022-08-17T00:25:51.061Z,8.35
2022-08-17T00:28:19.302Z,11.68
2022-08-17T00:30:53.590Z,9.70
2022-08-17T00:33:24.963Z,8.27
2022-08-17T00:35:55.879Z,9.93
2022-08-17T00:38:24.865Z,13.02
2022-08-17T00:40:55.852Z,10.55
2022-08-17T00:43:31.530Z,12.65
2022-08-17T00:46:00.745Z,12.23
2022-08-17T00:48:30.640Z,14.27
2022-08-17T00:51:05.671Z,9.93
2022-08-17T00:53:36.588Z,10.95
2022-08-17T00:56:08.657Z,8.95
2022-08-17T00:58:37.277Z,9.43
2022-08-17T01:01:07.503Z,10.93
2022-08-17T01:03:37.469Z,10.68
2022-08-17T01:06:13.531Z,11.32
2022-08-17T01:08:41.819Z,9.10
2022-08-17T01:11:10.179Z,10.90
2022-08-17T01:13:41.841Z,11.43
2022-08-17T01:16:16.938Z,11.90
2022-08-17T01:18:46.660Z,10.05
2022-08-17T01:21:22.376Z,11.70
2022-08-17T01:23:54.042Z,10.77
2022-08-17T01:26:22.385Z,10.65
2022-08-17T01:28:54.829Z,10.57
2022-08-17T01:31:28.187Z,10.95
2022-08-17T01:33:56.698Z,12.32
2022-08-17T01:36:24.887Z,11.38
2022-08-17T01:38:54.289Z,10.75
2022-08-17T01:41:24.741Z,11.55
2022-08-17T01:43:56.902Z,12.45
2022-08-17T01:46:27.908Z,9.75
2022-08-17T01:48:57.449Z,12.85
2022-08-17T01:51:26.987Z,13.05
2022-08-17T01:54:00.998Z,10.77
2022-08-17T01:56:33.598Z,12.38
2022-08-17T01:59:02.514Z,9.50
2022-08-17T02:01:35.825Z,13.45
2022-08-17T02:04:05.165Z,11.77
2022-08-17T02:06:45.182Z,10.77
2022-08-17T02:09:31.390Z,9.23
2022-08-17T02:12:38.397Z,10.93
2022-08-17T02:15:00.401Z,11.73
2022-08-17T02:17:28.424Z,12.32
2022-08-17T02:19:57.478Z,11.60
2022-08-17T02:22:31.161Z,13.45
2022-08-17T02:25:03.195Z,13.18
2022-08-17T02:27:34.362Z,11.85
2022-08-17T02:30:03.491Z,12.68
2022-08-17T02:32:53.511Z,10.80
2022-08-17T02:35:24.378Z,10.38
2022-08-17T02:38:00.620Z,10.70
2022-08-17T02:40:36.289Z,12.18
2022-08-17T02:43:07.562Z,13.65
2022-08-17T02:45:36.980Z,14.18
2022-08-17T02:48:07.030Z,15.32
2022-08-17T02:50:34.990Z,13.70
2022-08-17T02:53:05.481Z,11.15
2022-08-17T02:55:40.360Z,10.50
2022-08-17T02:58:13.520Z,12.15
2022-08-17T03:00:44.859Z,11.68
2022-08-17T03:03:20.413Z,11.13
2022-08-17T03:05:53.158Z,9.32
2022-08-17T03:08:25.703Z,11.85
2022-08-17T03:10:58.943Z,11.10
2022-08-17T03:13:27.587Z,8.25
2022-08-17T03:16:01.111Z,10.70
2022-08-17T03:18:29.718Z,10.15
2022-08-17T03:21:02.225Z,10.63
2022-08-17T03:23:45.304Z,11.02
2022-08-17T03:26:16.315Z,7.82
2022-08-17T03:28:46.465Z,8.05
2022-08-17T03:31:15.219Z,9.68
2022-08-17T03:33:44.542Z,8.60
2022-08-17T03:36:12.903Z,8.60
2022-08-17T03:38:41.691Z,7.65
2022-08-17T03:41:10.668Z,6.15
2022-08-17T03:43:42.734Z,7.97
2022-08-17T03:46:35.030Z,7.75
2022-08-17T03:49:23.929Z,9.45
2022-08-17T03:52:13.745Z,7.47
2022-08-17T03:55:02.281Z,6.97
2022-08-17T03:57:34.861Z,7.30
2022-08-17T04:00:08.293Z,7.40
2022-08-17T04:02:40.397Z,8.95
2022-08-17T04:05:09.358Z,11.68
2022-08-17T04:07:37.275Z,11.52
2022-08-17T04:10:05.711Z,10.00
2022-08-17T04:12:45.395Z,8.45
2022-08-17T04:15:15.419Z,7.65
2022-08-17T04:17:44.262Z,7.68
2022-08-17T04:20:12.749Z,10.05
2022-08-17T04:22:40.711Z,8.57
2022-08-17T04:25:15.249Z,5.63
2022-08-17T04:27:43.288Z,9.20
2022-08-17T04:30:12.415Z,6.30
2022-08-17T04:33:03.783Z,7.60
2022-08-17T04:35:37.734Z,5.82
2022-08-17T04:38:07.384Z,6.07
2022-08-17T04:40:52.907Z,6.15
2022-08-17T04:43:23.179Z,6.13
2022-08-17T04:45:55.895Z,3.83
2022-08-17T04:48:35.638Z,4.38
2022-08-17T04:51:10.477Z,5.40
2022-08-17T04:53:39.620Z,4.35
2022-08-17T04:56:16.121Z,3.17
2022-08-17T04:58:46.205Z,4.88
2022-08-17T05:01:14.383Z,5.35
2022-08-17T05:03:46.699Z,5.45
2022-08-17T05:06:14.813Z,3.85
2022-08-17T05:08:42.787Z,2.88
2022-08-17T05:11:11.370Z,3.50
2022-08-17T05:13:39.207Z,5.25
2022-08-17T05:16:08.992Z,3.70
2022-08-17T05:18:38.817Z,4.53
2022-08-17T05:21:08.222Z,4.38
2022-08-17T05:23:41.956Z,4.63
2022-08-17T05:26:22.562Z,4.32
2022-08-17T05:28:57.024Z,5.15
2022-08-17T05:31:26.639Z,4.53
2022-08-17T05:33:54.720Z,3.85
2022-08-17T05:36:43.021Z,4.78
2022-08-17T05:39:15.974Z,4.07
2022-08-17T05:41:44.961Z,4.07
2022-08-17T05:44:12.859Z,6.20
2022-08-17T05:46:43.701Z,3.95
2022-08-17T05:49:13.686Z,5.22
2022-08-17T05:52:09.768Z,3.78
2022-08-17T05:54:52.210Z,5.30
2022-08-17T05:57:39.929Z,4.63
2022-08-17T06:00:30.322Z,5.28
2022-08-17T06:03:16.282Z,3.33
2022-08-17T06:05:59.521Z,3.33
2022-08-17T06:08:36.121Z,3.00
2022-08-17T06:11:14.301Z,4.65
2022-08-17T06:14:01.881Z,5.32
2022-08-17T06:16:36.391Z,5.15
2022-08-17T06:19:12.493Z,3.50
2022-08-17T06:21:44.225Z,2.95
2022-08-17T06:24:27.358Z,3.88
2022-08-17T06:26:58.133Z,2.92
2022-08-17T06:29:38.718Z,3.33
2022-08-17T06:32:12.792Z,5.10
2022-08-17T06:34:42.224Z,4.60
2022-08-17T06:37:21.181Z,5.10
2022-08-17T06:39:57.539Z,4.80
2022-08-17T06:42:54.716Z,5.97
2022-08-17T06:45:32.079Z,5.10
2022-08-17T06:48:07.004Z,4.22
2022-08-17T06:50:37.748Z,4.97
2022-08-17T06:53:14.786Z,4.63
2022-08-17T06:55:50.009Z,5.70
2022-08-17T06:58:22.685Z,6.95
2022-08-17T07:00:56.750Z,4.50
2022-08-17T07:03:37.789Z,4.10
2022-08-17T07:06:11.959Z,7.32
2022-08-17T07:08:52.011Z,4.40
2022-08-17T07:11:28.493Z,6.30
2022-08-17T07:14:05.088Z,5.70
2022-08-17T07:16:51.949Z,3.60
2022-08-17T07:19:23.997Z,5.43
2022-08-17T07:21:58.449Z,5.75
2022-08-17T07:24:39.106Z,4.72
2022-08-17T07:27:12.839Z,5.35
2022-08-17T07:29:48.509Z,5.35
2022-08-17T07:32:19.965Z,5.60
2022-08-17T07:35:05.064Z,6.28
2022-08-17T07:37:33.574Z,7.43
2022-08-17T07:40:16.795Z,7.07
2022-08-17T07:43:05.633Z,8.88
2022-08-17T07:45:52.571Z,7.70
2022-08-17T07:48:24.882Z,9.20
2022-08-17T07:50:53.388Z,8.10
2022-08-17T07:53:24.370Z,10.02
2022-08-17T07:55:54.208Z,12.90
2022-08-17T07:58:25.871Z,12.40
2022-08-17T08:01:12.978Z,12.23
2022-08-17T08:03:43.208Z,12.93
2022-08-17T08:06:21.670Z,11.63
2022-08-17T08:08:53.283Z,12.48
2022-08-17T08:11:32.198Z,11.05
2022-08-17T08:14:21.566Z,13.68
2022-08-17T08:17:01.803Z,10.95
2022-08-17T08:19:31.531Z,13.57
2022-08-17T08:22:07.778Z,9.40
2022-08-17T08:24:53.186Z,8.50
2022-08-17T08:27:36.064Z,11.45
2022-08-17T08:30:09.855Z,8.85
2022-08-17T08:32:50.378Z,12.18
2022-08-17T08:35:26.696Z,10.80
2022-08-17T08:38:02.435Z,7.63
2022-08-17T08:40:54.838Z,7.50
2022-08-17T08:43:30.982Z,8.85
2022-08-17T08:46:11.384Z,7.43
2022-08-17T08:49:12.054Z,5.72
2022-08-17T08:51:50.672Z,6.05
2022-08-17T08:54:34.868Z,7.95
2022-08-17T08:57:26.717Z,6.60
2022-08-17T09:00:06.909Z,6.75
2022-08-17T09:02:53.302Z,7.72
2022-08-17T09:05:34.781Z,9.52
2022-08-17T09:08:10.590Z,5.95
2022-08-17T09:10:56.744Z,9.70
2022-08-17T09:13:36.218Z,8.93
2022-08-17T09:16:18.288Z,7.97
2022-08-17T09:18:59.793Z,5.53
2022-08-17T09:21:53.450Z,9.48
2022-08-17T09:24:26.099Z,6.22
2022-08-17T09:26:59.998Z,6.97
2022-08-17T09:29:34.358Z,9.73
2022-08-17T09:32:04.808Z,6.60
2022-08-17T09:34:40.549Z,7.07
2022-08-17T09:37:21.824Z,7.82
2022-08-17T09:39:56.741Z,8.80
2022-08-17T09:42:29.653Z,6.28
2022-08-17T09:45:10.550Z,8.32
2022-08-17T09:47:46.678Z,5.40
2022-08-17T09:51:05.224Z,8.23
2022-08-17T09:53:12.657Z,6.53
2022-08-17T09:55:53.402Z,6.80
2022-08-17T09:58:31.061Z,6.22
2022-08-17T10:01:09.224Z,5.40
2022-08-17T10:03:53.945Z,7.68
2022-08-17T10:06:28.044Z,9.00
2022-08-17T10:09:06.563Z,5.70
2022-08-17T10:11:57.960Z,5.68
2022-08-17T10:14:38.109Z,5.38
2022-08-17T10:17:21.468Z,8.40
2022-08-17T10:19:59.038Z,5.72
2022-08-17T10:22:53.249Z,6.82
2022-08-17T10:25:56.721Z,7.65
2022-08-17T10:28:30.909Z,7.35
2022-08-17T10:31:33.747Z,7.38
2022-08-17T10:34:41.024Z,6.30
2022-08-17T10:37:35.439Z,6.35
2022-08-17T10:40:19.944Z,7.65
2022-08-17T10:42:52.426Z,10.52
2022-08-17T10:45:30.088Z,8.93
2022-08-17T10:48:06.308Z,12.00
2022-08-17T10:50:49.446Z,12.68
2022-08-17T10:53:55.844Z,14.38
2022-08-17T10:56:44.565Z,11.40
2022-08-17T10:59:48.296Z,14.43
2022-08-17T11:02:23.355Z,18.30
2022-08-17T11:05:02.348Z,13.95
2022-08-17T11:07:47.529Z,14.27
2022-08-17T11:10:51.801Z,15.85
2022-08-17T11:13:33.850Z,16.23
2022-08-17T11:16:12.928Z,13.88
2022-08-17T11:19:12.833Z,11.88
2022-08-17T11:22:02.679Z,10.85
2022-08-17T11:24:44.654Z,10.35
2022-08-17T11:27:24.972Z,10.25
2022-08-17T11:30:02.714Z,9.45
2022-08-17T11:32:47.179Z,9.10
2022-08-17T11:35:32.410Z,7.43
2022-08-17T11:38:16.583Z,11.52
2022-08-17T11:41:06.967Z,8.82
2022-08-17T11:44:03.976Z,9.60
2022-08-17T11:47:09.364Z,8.27
2022-08-17T11:50:07.874Z,8.52
2022-08-17T11:52:42.297Z,7.10
2022-08-17T11:55:52.270Z,10.88
2022-08-17T11:58:38.860Z,10.35
2022-08-17T12:01:09.535Z,9.32
2022-08-17T12:03:54.190Z,9.25
2022-08-17T12:06:43.464Z,10.63
2022-08-17T12:09:16.863Z,10.88
2022-08-17T12:12:11.318Z,12.30
2022-08-17T12:15:08.011Z,12.07
2022-08-17T12:17:40.938Z,10.50
2022-08-17T12:20:27.695Z,9.05
2022-08-17T12:23:06.794Z,10.32
2022-08-17T12:25:39.819Z,9.77
2022-08-17T12:28:21.502Z,8.25
2022-08-17T12:30:51.934Z,9.38
2022-08-17T12:33:25.341Z,8.23
2022-08-17T12:36:04.131Z,7.82
2022-08-17T12:38:34.322Z,8.68
2022-08-17T12:41:24.315Z,8.27
2022-08-17T12:44:01.453Z,7.82
2022-08-17T12:46:29.849Z,8.10
2022-08-17T12:49:12.998Z,8.57
2022-08-17T12:51:46.097Z,10.35
2022-08-17T12:54:29.000Z,6.85
2022-08-17T12:56:57.168Z,10.10
2022-08-17T12:59:29.626Z,7.03
2022-08-17T13:01:58.839Z,6.90
2022-08-17T13:04:29.733Z,7.70
2022-08-17T13:07:00.070Z,8.23
2022-08-17T13:09:35.624Z,5.43
2022-08-17T13:12:08.653Z,8.48
2022-08-17T13:14:36.862Z,7.55
2022-08-17T13:17:11.025Z,9.30
2022-08-17T13:19:49.009Z,5.07
2022-08-17T13:22:25.399Z,6.10
2022-08-17T13:24:55.833Z,7.85
2022-08-17T13:27:25.943Z,7.50
2022-08-17T13:29:57.433Z,6.80
2022-08-17T13:32:39.970Z,6.20
2022-08-17T13:35:36.424Z,6.93
2022-08-17T13:38:11.737Z,8.50
2022-08-17T13:40:55.509Z,6.65
2022-08-17T13:43:45.089Z,6.15
2022-08-17T13:46:20.568Z,6.93
2022-08-17T13:48:59.118Z,6.53
2022-08-17T13:51:36.601Z,6.00
2022-08-17T13:54:24.465Z,7.85
2022-08-17T13:57:02.256Z,7.35
2022-08-17T13:59:53.463Z,6.38
2022-08-17T14:02:28.592Z,7.22
2022-08-17T14:04:57.217Z,7.55
2022-08-17T14:07:33.927Z,6.65
2022-08-17T14:10:07.570Z,5.68
2022-08-17T14:12:36.791Z,6.68
2022-08-17T14:15:06.324Z,9.02
2022-08-17T14:17:38.641Z,8.07
2022-08-17T14:20:10.300Z,7.35
2022-08-17T14:22:41.422Z,8.00
2022-08-17T14:25:13.619Z,6.88
2022-08-17T14:27:51.763Z,7.68
2022-08-17T14:30:25.495Z,8.05
2022-08-17T14:32:57.931Z,6.53
2022-08-17T14:35:27.891Z,6.90
2022-08-17T14:37:56.578Z,7.78
2022-08-17T14:40:27.055Z,4.07
2022-08-17T14:42:56.506Z,7.75
2022-08-17T14:45:32.896Z,8.70
2022-08-17T14:48:03.890Z,6.00
2022-08-17T14:50:32.122Z,7.13
2022-08-17T14:53:04.479Z,8.45
2022-08-17T14:55:34.475Z,6.57
2022-08-17T14:58:04.123Z,9.73
2022-08-17T15:00:32.555Z,8.95
2022-08-17T15:03:02.417Z,7.40
2022-08-17T15:05:34.586Z,6.70
2022-08-17T15:08:04.552Z,9.65
2022-08-17T15:10:34.509Z,7.78
2022-08-17T15:13:02.500Z,9.63
2022-08-17T15:15:34.928Z,7.65
2022-08-17T15:18:05.836Z,10.20
2022-08-17T15:20:34.085Z,5.90
2022-08-17T15:23:02.160Z,7.65
2022-08-17T15:25:34.528Z,6.00
2022-08-17T15:28:06.336Z,6.65
2022-08-17T15:30:35.136Z,5.55
2022-08-17T15:33:03.587Z,5.20
2022-08-17T15:35:33.930Z,10.18
2022-08-17T15:38:10.644Z,5.93
2022-08-17T15:40:44.006Z,5.90
2022-08-17T15:43:15.646Z,7.82
2022-08-17T15:45:44.457Z,6.93
2022-08-17T15:48:24.811Z,7.30
2022-08-17T15:50:53.809Z,7.03
2022-08-17T15:53:21.886Z,6.57
2022-08-17T15:55:51.528Z,6.30
2022-08-17T15:58:20.545Z,5.65
2022-08-17T16:01:16.707Z,8.20
2022-08-17T16:04:03.896Z,6.18
2022-08-17T16:06:32.899Z,8.50
2022-08-17T16:09:00.764Z,8.20
2022-08-17T16:11:29.994Z,5.70
2022-08-17T16:13:57.877Z,5.32
2022-08-17T16:16:29.414Z,9.27
2022-08-17T16:18:59.239Z,6.03
2022-08-17T16:21:29.582Z,8.93
2022-08-17T16:24:01.541Z,6.47
2022-08-17T16:26:32.914Z,7.10
2022-08-17T16:29:03.517Z,7.65
2022-08-17T16:31:33.141Z,7.65
2022-08-17T16:34:16.024Z,8.18
2022-08-17T16:36:55.014Z,10.35
2022-08-17T16:39:29.392Z,9.77
2022-08-17T16:41:59.269Z,7.93
2022-08-17T16:44:32.662Z,8.90
2022-08-17T16:47:01.758Z,7.28
2022-08-17T16:49:37.234Z,7.35
2022-08-17T16:52:11.201Z,8.85
2022-08-17T16:54:43.932Z,6.45
2022-08-17T16:57:16.072Z,7.18
2022-08-17T16:59:47.999Z,7.80
2022-08-17T17:02:17.421Z,10.40
2022-08-17T17:04:51.745Z,8.82
2022-08-17T17:07:52.012Z,6.30
2022-08-17T17:10:24.908Z,10.10
2022-08-17T17:13:04.000Z,8.55
2022-08-17T17:15:48.214Z,7.32
2022-08-17T17:18:22.244Z,10.15
2022-08-17T17:20:56.879Z,8.60
2022-08-17T17:23:38.756Z,7.47
2022-08-17T17:26:21.679Z,11.38
2022-08-17T17:29:03.735Z,9.00
2022-08-17T17:31:39.261Z,7.65
2022-08-17T17:34:11.250Z,6.57
2022-08-17T17:36:43.434Z,8.57
2022-08-17T17:39:19.847Z,7.15
2022-08-17T17:41:52.824Z,6.75
2022-08-17T17:44:28.644Z,10.52
2022-08-17T17:46:59.869Z,9.57
2022-08-17T17:49:31.947Z,8.80
2022-08-17T17:52:12.291Z,8.07
2022-08-17T17:55:04.776Z,8.15
2022-08-17T17:57:44.227Z,8.52
2022-08-17T18:00:16.675Z,7.85
2022-08-17T18:02:57.028Z,9.55
2022-08-17T18:05:48.352Z,5.60
2022-08-17T18:08:34.360Z,9.27
2022-08-17T18:11:14.101Z,7.72
2022-08-17T18:13:57.065Z,7.53
2022-08-17T18:16:42.758Z,8.00
2022-08-17T18:19:13.961Z,5.72
2022-08-17T18:21:47.875Z,7.30
2022-08-17T18:24:18.526Z,6.63
2022-08-17T18:26:51.359Z,7.32
2022-08-17T18:29:35.788Z,4.88
2022-08-17T18:32:22.956Z,6.85
2022-08-17T18:34:53.245Z,7.07
2022-08-17T18:37:48.246Z,8.73
2022-08-17T18:40:36.097Z,5.55
2022-08-17T18:43:10.691Z,5.45
2022-08-17T18:45:45.964Z,6.50
2022-08-17T18:48:25.602Z,6.88
2022-08-17T18:50:59.206Z,7.20
2022-08-17T18:53:38.343Z,7.25
2022-08-17T18:59:38.680Z,5.82
2022-08-17T19:02:39.047Z,7.30
2022-08-17T19:05:26.155Z,7.18
2022-08-17T19:07:54.657Z,5.30
2022-08-17T19:10:29.258Z,7.35
2022-08-17T19:13:12.724Z,4.70
2022-08-17T19:16:05.322Z,9.05
2022-08-17T19:18:46.310Z,6.30
2022-08-17T19:21:19.334Z,5.22
2022-08-17T19:23:53.549Z,5.05
2022-08-17T19:26:53.319Z,5.65
2022-08-17T19:29:22.201Z,7.70
2022-08-17T19:31:55.128Z,8.20
2022-08-17T19:34:34.353Z,6.82
2022-08-17T19:37:12.267Z,5.90
2022-08-17T19:39:51.694Z,4.85
2022-08-17T19:42:32.916Z,8.82
2022-08-17T19:45:12.477Z,6.40
2022-08-17T19:47:58.597Z,5.75
2022-08-17T19:50:40.465Z,5.68
2022-08-17T19:53:21.222Z,4.65
2022-08-17T19:55:58.588Z,6.15
2022-08-17T19:58:39.365Z,7.32
2022-08-17T20:01:12.912Z,6.00
2022-08-17T20:03:54.403Z,6.45
2022-08-17T20:06:26.468Z,7.88
2022-08-17T20:09:02.804Z,6.00
2022-08-17T20:11:41.222Z,5.70
2022-08-17T20:14:15.270Z,4.47
2022-08-17T20:16:45.471Z,4.30
2022-08-17T20:19:24.725Z,6.35
2022-08-17T20:21:57.364Z,8.10
2022-08-17T20:24:34.832Z,6.10
2022-08-17T20:27:18.189Z,4.53
2022-08-17T20:30:02.939Z,5.22
2022-08-17T20:32:35.274Z,5.85
2022-08-17T20:35:20.891Z,3.83
2022-08-17T20:37:55.270Z,7.07
2022-08-17T20:40:36.490Z,5.70
2022-08-17T20:43:44.522Z,4.47
2022-08-17T20:46:42.186Z,3.42
2022-08-17T20:49:26.302Z,5.15
2022-08-17T20:52:02.740Z,3.75
2022-08-17T20:54:52.759Z,5.30
2022-08-17T20:57:49.432Z,4.18
2022-08-17T21:00:46.424Z,5.43
2022-08-17T21:03:51.154Z,3.65
2022-08-17T21:06:26.608Z,4.65
2022-08-17T21:08:59.414Z,4.95
2022-08-17T21:12:04.637Z,4.90
2022-08-17T21:14:48.015Z,5.28
2022-08-17T21:17:39.298Z,4.32
2022-08-17T21:20:23.318Z,7.25
2022-08-17T21:23:08.004Z,2.65
2022-08-17T21:26:11.847Z,4.03
2022-08-17T21:29:30.084Z,4.40
2022-08-17T21:32:21.831Z,4.43
2022-08-17T21:35:31.007Z,5.65
2022-08-17T21:38:05.153Z,4.95
2022-08-17T21:40:36.424Z,4.35
2022-08-17T21:43:22.712Z,5.32
2022-08-17T21:46:03.325Z,4.53
2022-08-17T21:48:33.624Z,4.15
2022-08-17T21:51:10.329Z,3.22
2022-08-17T21:53:46.944Z,4.80
2022-08-17T21:56:27.764Z,5.07
2022-08-17T21:58:59.382Z,4.15
2022-08-17T22:01:34.213Z,4.53
2022-08-17T22:04:06.530Z,4.15
2022-08-17T22:06:38.199Z,5.90
2022-08-17T22:09:13.920Z,5.35
2022-08-17T22:12:00.411Z,4.88
2022-08-17T22:14:52.345Z,3.85
2022-08-17T22:17:28.659Z,5.28
2022-08-17T22:20:00.377Z,3.85
2022-08-17T22:22:35.352Z,4.63
2022-08-17T22:25:08.823Z,4.10
2022-08-17T22:27:50.988Z,4.85
2022-08-17T22:30:29.255Z,4.10
2022-08-17T22:33:22.854Z,3.28
2022-08-17T22:35:51.435Z,3.65
2022-08-17T22:38:33.092Z,3.20
2022-08-17T22:41:33.691Z,4.28
2022-08-17T22:44:10.221Z,5.35
2022-08-17T22:46:42.078Z,5.40
2022-08-17T22:49:11.434Z,3.90
2022-08-17T22:51:39.612Z,5.25
2022-08-17T22:54:35.791Z,4.15
2022-08-17T22:57:23.621Z,2.42
2022-08-17T22:59:54.936Z,2.92
2022-08-17T23:02:28.125Z,4.28
2022-08-17T23:05:24.552Z,2.90
2022-08-17T23:07:53.725Z,4.20
2022-08-17T23:10:29.076Z,4.10
2022-08-17T23:12:59.704Z,4.78
2022-08-17T23:15:33.885Z,3.80
2022-08-17T23:18:04.560Z,3.63
2022-08-17T23:20:35.592Z,3.78
2022-08-17T23:23:05.551Z,3.03
2022-08-17T23:25:35.384Z,3.38
2022-08-17T23:28:07.838Z,2.88
2022-08-17T23:30:42.142Z,3.25
2022-08-17T23:33:19.068Z,3.63
2022-08-17T23:35:48.768Z,3.22
2022-08-17T23:38:18.544Z,3.22
2022-08-17T23:40:47.107Z,4.25
2022-08-17T23:43:25.121Z,2.45
2022-08-17T23:46:00.408Z,2.75
2022-08-17T23:48:36.927Z,2.75
2022-08-17T23:51:10.462Z,4.35
2022-08-17T23:53:43.973Z,4.25
2022-08-17T23:56:11.986Z,3.45
2022-08-17T23:58:44.684Z,3.50
